Time;durP1;ratioP1;P1;durP2;ratioP2;P2;SDS_P1;SDS_P2;PMS_P1;PMS_P2;Temp;Humidity;BMP_temperature;BMP_pressure;BME280_temperature;BME280_humidity;BME280_pressure;Samples;Min_cycle;Max_cycle;Signal;HPM_P1;HPM_P2
2021/03/06 00:00:08;;;;;;;;;;;;;;;9.02;40.10;103589.88;5119421;28;19930;-84
2021/03/06 00:02:33;;;;;;;;;;;;;;;8.98;39.96;103593.44;5100764;28;19922;-85
2021/03/06 00:04:58;;;;;;;;;;;;;;;9.05;39.69;103592.56;5100755;28;19924;-85
2021/03/06 00:07:23;;;;;;;;;;;;;;;9.09;39.85;103599.81;5100574;28;20018;-85
2021/03/06 00:09:49;;;;;;;;;;;;;;;9.32;39.27;103590.84;5100673;28;19916;-85
2021/03/06 00:12:14;;;;;;;;;;;;;;;9.10;39.94;103582.69;5118647;28;20274;-86
2021/03/06 00:14:39;;;;;;;;;;;;;;;8.81;40.65;103580.78;5117048;28;19912;-85
2021/03/06 00:17:04;;;;;;;;;;;;;;;8.82;40.48;103582.59;5099264;28;20261;-85
2021/03/06 00:19:30;;;;;;;;;;;;;;;8.75;40.47;103580.75;5100322;28;19958;-85
2021/03/06 00:21:55;;;;;;;;;;;;;;;8.95;39.96;103582.63;5118607;28;19916;-85
2021/03/06 00:24:20;;;;;;;;;;;;;;;8.78;40.90;103579.88;5100687;28;19922;-86
2021/03/06 00:26:46;;;;;;;;;;;;;;;9.12;40.67;103579.97;5099055;28;20002;-85
2021/03/06 00:29:11;;;;;;;;;;;;;;;9.00;40.78;103575.47;5118866;28;19930;-85
2021/03/06 00:31:37;;;;;;;;;;;;;;;9.01;40.05;103583.56;5100754;28;20289;-84
2021/03/06 00:34:03;;;;;;;;;;;;;;;8.94;40.55;103587.16;5101053;28;19970;-84
2021/03/06 00:36:28;;;;;;;;;;;;;;;8.64;41.52;103587.94;5102806;28;19961;-85
2021/03/06 00:38:53;;;;;;;;;;;;;;;8.91;40.61;103588.91;5101409;28;20376;-86
2021/03/06 00:41:18;;;;;;;;;;;;;;;8.93;40.04;103585.34;5100281;28;19916;-85
2021/03/06 00:43:44;;;;;;;;;;;;;;;8.52;41.49;103594.16;5100492;28;19916;-84
2021/03/06 00:46:09;;;;;;;;;;;;;;;9.01;40.40;103585.34;5118561;28;19926;-85
2021/03/06 00:48:34;;;;;;;;;;;;;;;8.87;40.46;103586.22;5100382;28;19978;-85
2021/03/06 00:50:59;;;;;;;;;;;;;;;8.76;40.75;103587.97;5099979;28;19922;-84
2021/03/06 00:53:24;;;;;;;;;;;;;;;9.01;39.71;103588.06;5099972;28;19916;-84
2021/03/06 00:55:50;;;;;;;;;;;;;;;8.80;40.56;103581.72;5100800;28;19916;-85
2021/03/06 00:58:15;;;;;;;;;;;;;;;8.81;40.92;103585.28;5100013;28;19915;-86
2021/03/06 01:00:40;;;;;;;;;;;;;;;8.92;40.64;103582.63;5099744;28;19931;-85
2021/03/06 01:03:06;;;;;;;;;;;;;;;8.67;40.68;103582.53;5101490;28;19985;-84
2021/03/06 01:05:31;;;;;;;;;;;;;;;8.74;40.58;103586.16;5101245;28;19916;-84
2021/03/06 01:07:57;;;;;;;;;;;;;;;8.74;40.86;103581.69;5101438;28;19983;-84
2021/03/06 01:10:28;;;;;;;;;;;;;;;8.45;41.87;103587.81;5100793;28;19916;-85
2021/03/06 01:12:53;;;;;;;;;;;;;;;8.40;41.66;103576.06;5118400;28;19916;-85
2021/03/06 01:15:18;;;;;;;;;;;;;;;8.46;42.08;103583.34;5099922;28;20296;-85
2021/03/06 01:17:44;;;;;;;;;;;;;;;8.40;41.37;103584.16;5117959;28;20003;-84
2021/03/06 01:20:10;;;;;;;;;;;;;;;8.66;41.25;103581.63;5117643;28;20032;-85
2021/03/06 01:22:35;;;;;;;;;;;;;;;8.57;41.29;103580.69;5100351;28;19969;-85
2021/03/06 01:25:00;;;;;;;;;;;;;;;8.51;41.45;103581.56;5101420;28;19916;-86
2021/03/06 01:27:26;;;;;;;;;;;;;;;8.29;42.32;103584.13;5101172;28;19917;-85
2021/03/06 01:29:51;;;;;;;;;;;;;;;8.58;41.45;103579.81;5100613;28;20007;-86
2021/03/06 01:32:16;;;;;;;;;;;;;;;8.58;40.92;103572.59;5100107;28;20004;-86
2021/03/06 01:34:41;;;;;;;;;;;;;;;8.51;41.57;103576.16;5100094;28;19915;-84
2021/03/06 01:37:07;;;;;;;;;;;;;;;8.45;41.89;103571.63;5099110;28;19968;-85
2021/03/06 01:39:32;;;;;;;;;;;;;;;8.51;41.54;103569.00;5119246;28;19916;-84
2021/03/06 01:41:58;;;;;;;;;;;;;;;8.27;42.28;103574.19;5100457;28;19939;-85
2021/03/06 01:44:23;;;;;;;;;;;;;;;8.49;41.27;103567.16;5099027;28;19916;-84
2021/03/06 01:46:48;;;;;;;;;;;;;;;8.42;41.28;103566.19;5100606;28;19919;-85
2021/03/06 01:49:13;;;;;;;;;;;;;;;8.42;41.54;103559.91;5104220;28;19968;-84
2021/03/06 01:51:40;;;;;;;;;;;;;;;8.61;41.24;103563.63;5101765;28;20006;-84
2021/03/06 01:54:06;;;;;;;;;;;;;;;8.29;42.43;103564.34;5101321;28;19916;-85
2021/03/06 01:56:32;;;;;;;;;;;;;;;8.22;43.12;103562.50;5109686;28;19916;-85
2021/03/06 01:58:57;;;;;;;;;;;;;;;7.98;43.27;103566.81;5114454;28;19924;-85
2021/03/06 02:01:22;;;;;;;;;;;;;;;7.83;42.95;103564.91;5112586;28;19916;-84
2021/03/06 02:03:48;;;;;;;;;;;;;;;8.21;42.94;103568.78;5115548;28;19927;-84
2021/03/06 02:06:13;;;;;;;;;;;;;;;8.21;43.05;103564.25;5140843;28;19926;-83
2021/03/06 02:08:39;;;;;;;;;;;;;;;8.35;41.74;103561.69;5121657;28;19915;-84
2021/03/06 02:11:04;;;;;;;;;;;;;;;8.51;41.14;103555.50;5107514;28;20018;-83
2021/03/06 02:13:45;;;;;;;;;;;;;;;8.03;42.57;103550.69;5105988;28;20005;-84
2021/03/06 02:16:10;;;;;;;;;;;;;;;8.07;41.29;103564.19;5105215;28;19916;-83
2021/03/06 02:18:39;;;;;;;;;;;;;;;8.16;42.27;103558.84;5104557;28;19923;-84
2021/03/06 02:21:07;;;;;;;;;;;;;;;7.93;41.43;103560.50;5103878;28;19923;-85
2021/03/06 02:23:51;;;;;;;;;;;;;;;8.05;41.77;103554.31;5102948;28;19937;-84
2021/03/06 02:26:20;;;;;;;;;;;;;;;8.15;42.40;103557.06;5103132;28;19915;-85
2021/03/06 02:29:04;;;;;;;;;;;;;;;8.31;41.51;103558.03;5103385;28;19923;-85
2021/03/06 02:31:31;;;;;;;;;;;;;;;8.32;41.39;103556.25;5104392;28;19942;-86
2021/03/06 02:34:00;;;;;;;;;;;;;;;8.24;41.55;103550.81;5103286;28;20357;-85
2021/03/06 02:36:27;;;;;;;;;;;;;;;8.14;41.29;103554.34;5102272;28;19916;-86
2021/03/06 02:38:55;;;;;;;;;;;;;;;7.95;42.01;103553.31;5102566;28;19916;-85
2021/03/06 02:41:21;;;;;;;;;;;;;;;8.04;41.66;103542.59;5102704;28;20368;-86
2021/03/06 02:43:46;;;;;;;;;;;;;;;8.10;42.26;103544.44;5102451;28;19923;-85
2021/03/06 02:46:12;;;;;;;;;;;;;;;8.03;42.13;103540.81;5103068;28;19916;-84
2021/03/06 02:48:37;;;;;;;;;;;;;;;7.94;42.68;103543.41;5103339;28;19961;-86
2021/03/06 02:51:03;;;;;;;;;;;;;;;8.11;42.74;103539.06;5103494;28;19916;-84
2021/03/06 02:53:28;;;;;;;;;;;;;;;7.95;42.55;103537.16;5103485;28;19961;-86
2021/03/06 02:55:53;;;;;;;;;;;;;;;7.89;42.27;103532.59;5103154;28;19939;-85
2021/03/06 02:58:28;;;;;;;;;;;;;;;7.91;41.99;103546.09;5103113;28;20285;-86
2021/03/06 03:00:59;;;;;;;;;;;;;;;7.99;41.44;103537.19;5103989;28;19928;-85
2021/03/06 03:03:42;;;;;;;;;;;;;;;7.95;41.94;103537.16;5121865;28;19911;-85
2021/03/06 03:06:11;;;;;;;;;;;;;;;7.85;42.81;103532.59;5103397;28;19919;-85
2021/03/06 03:08:55;;;;;;;;;;;;;;;7.83;43.53;103537.06;5103586;28;19916;-85
2021/03/06 03:11:24;;;;;;;;;;;;;;;8.04;43.01;103531.81;5103805;28;19965;-85
2021/03/06 03:13:52;;;;;;;;;;;;;;;7.90;43.30;103533.53;5106257;28;19920;-84
2021/03/06 03:16:20;;;;;;;;;;;;;;;7.71;43.55;103530.69;5111570;28;19959;-86
2021/03/06 03:19:21;;;;;;;;;;;;;;;7.62;43.70;103533.31;5125488;28;19955;-86
2021/03/06 03:21:48;;;;;;;;;;;;;;;7.72;42.74;103539.69;5003783;28;19929;-85
2021/03/06 03:24:18;;;;;;;;;;;;;;;7.66;42.86;103535.16;5084174;28;19916;-85
2021/03/06 03:26:48;;;;;;;;;;;;;;;7.69;43.28;103526.19;5106805;28;19916;-84
2021/03/06 03:29:15;;;;;;;;;;;;;;;7.36;43.75;103536.69;5105184;28;19926;-86
2021/03/06 03:31:43;;;;;;;;;;;;;;;7.61;42.95;103531.53;5103031;28;19920;-85
2021/03/06 03:34:09;;;;;;;;;;;;;;;7.71;42.52;103529.78;5102675;28;19916;-84
2021/03/06 03:36:35;;;;;;;;;;;;;;;7.55;42.96;103543.16;5121061;28;19916;-85
2021/03/06 03:39:01;;;;;;;;;;;;;;;7.36;43.04;103530.41;5102459;28;19920;-83
2021/03/06 03:41:27;;;;;;;;;;;;;;;7.67;43.36;103527.94;5102509;28;19916;-85
2021/03/06 03:43:52;;;;;;;;;;;;;;;7.60;43.21;103536.00;5102577;28;19915;-83
2021/03/06 03:46:18;;;;;;;;;;;;;;;7.75;43.26;103537.03;5102353;28;19915;-83
2021/03/06 03:48:44;;;;;;;;;;;;;;;7.75;43.11;103540.59;5102308;28;20458;-84
2021/03/06 03:51:10;;;;;;;;;;;;;;;7.59;42.97;103544.06;5102234;28;19920;-84
2021/03/06 03:53:35;;;;;;;;;;;;;;;7.70;42.59;103542.38;5101999;28;20419;-83
2021/03/06 03:56:01;;;;;;;;;;;;;;;7.60;42.62;103529.72;5102174;28;19928;-83
2021/03/06 03:58:26;;;;;;;;;;;;;;;7.82;42.05;103536.19;5101692;28;19916;-84
2021/03/06 04:00:55;;;;;;;;;;;;;;;7.72;42.25;103532.50;5119590;28;19926;-83
2021/03/06 04:03:20;;;;;;;;;;;;;;;7.63;42.09;103529.72;5100553;28;19916;-83
2021/03/06 04:05:46;;;;;;;;;;;;;;;7.58;42.16;103526.13;5100764;28;19916;-84
2021/03/06 04:08:11;;;;;;;;;;;;;;;7.62;42.33;103527.91;5101524;28;20280;-85
2021/03/06 04:10:36;;;;;;;;;;;;;;;7.72;42.19;103526.22;5102195;28;19916;-83
2021/03/06 04:13:01;;;;;;;;;;;;;;;7.53;42.51;103525.16;5120141;28;20365;-85
2021/03/06 04:15:27;;;;;;;;;;;;;;;7.56;42.70;103530.56;5102190;28;19912;-85
2021/03/06 04:17:52;;;;;;;;;;;;;;;7.57;42.76;103535.97;5101524;28;20010;-85
2021/03/06 04:20:19;;;;;;;;;;;;;;;7.21;43.58;103536.53;5101474;28;19920;-84
2021/03/06 04:22:45;;;;;;;;;;;;;;;7.36;42.48;103544.75;5101517;28;19951;-84
2021/03/06 04:25:10;;;;;;;;;;;;;;;7.50;42.67;103547.56;5101048;28;19923;-84
2021/03/06 04:27:36;;;;;;;;;;;;;;;7.66;42.37;103550.44;5101900;28;19916;-85
2021/03/06 04:30:03;;;;;;;;;;;;;;;7.47;42.98;103550.25;5120207;28;19924;-84
2021/03/06 04:32:28;;;;;;;;;;;;;;;7.56;42.25;103554.81;5101618;28;20312;-84
2021/03/06 04:34:53;;;;;;;;;;;;;;;7.57;42.60;103556.63;5100944;28;20002;-82
2021/03/06 04:37:18;;;;;;;;;;;;;;;7.23;43.08;103551.84;5101986;28;20468;-85
2021/03/06 04:39:43;;;;;;;;;;;;;;;7.26;42.91;103557.25;5108288;28;19916;-84
2021/03/06 04:42:09;;;;;;;;;;;;;;;6.87;44.79;103564.00;5101816;28;19923;-84
2021/03/06 04:44:34;;;;;;;;;;;;;;;6.82;44.75;103572.91;5101825;28;19916;-86
2021/03/06 04:46:59;;;;;;;;;;;;;;;6.83;44.78;103574.72;5119332;28;19920;-84
2021/03/06 04:49:25;;;;;;;;;;;;;;;7.14;44.23;103569.66;5119710;28;20440;-83
2021/03/06 04:51:50;;;;;;;;;;;;;;;7.24;43.03;103579.66;5120012;28;19947;-83
2021/03/06 04:54:17;;;;;;;;;;;;;;;6.76;45.12;103567.44;5120371;28;19923;-84
2021/03/06 04:56:42;;;;;;;;;;;;;;;6.72;44.79;103574.59;5114397;28;20138;-82
2021/03/06 04:59:07;;;;;;;;;;;;;;;7.01;44.39;103585.69;5135873;28;19923;-83
2021/03/06 05:01:33;;;;;;;;;;;;;;;7.07;43.51;103582.16;5127332;28;19920;-83
2021/03/06 05:03:58;;;;;;;;;;;;;;;7.11;43.44;103578.63;5125321;28;19927;-82
2021/03/06 05:06:24;;;;;;;;;;;;;;;7.34;42.34;103581.56;5105512;28;20011;-83
2021/03/06 05:08:49;;;;;;;;;;;;;;;7.18;43.00;103579.59;5105482;28;19922;-83
2021/03/06 05:11:14;;;;;;;;;;;;;;;7.39;43.28;103578.91;5103181;28;19916;-82
2021/03/06 05:13:40;;;;;;;;;;;;;;;7.27;42.58;103575.19;5101793;28;20249;-83
2021/03/06 05:16:05;;;;;;;;;;;;;;;7.09;42.99;103581.28;5101249;28;19975;-84
2021/03/06 05:18:31;;;;;;;;;;;;;;;7.14;43.26;103584.06;5100292;28;19916;-84
2021/03/06 05:20:56;;;;;;;;;;;;;;;7.23;43.07;103577.84;5100614;28;19965;-83
2021/03/06 05:23:23;;;;;;;;;;;;;;;7.14;42.91;103577.75;5101032;28;19923;-84
2021/03/06 05:25:48;;;;;;;;;;;;;;;7.29;42.74;103575.22;5100807;28;19943;-83
2021/03/06 05:28:20;;;;;;;;;;;;;;;7.18;42.55;103577.78;5101514;28;19939;-83
2021/03/06 05:30:46;;;;;;;;;;;;;;;7.20;43.09;103575.13;5100411;28;19930;-84
2021/03/06 05:33:11;;;;;;;;;;;;;;;7.35;42.26;103574.38;5100677;28;19916;-85
2021/03/06 05:35:36;;;;;;;;;;;;;;;7.19;42.78;103576.03;5117657;28;19915;-84
2021/03/06 05:38:02;;;;;;;;;;;;;;;7.31;42.50;103569.84;5100150;28;19977;-86
2021/03/06 05:40:29;;;;;;;;;;;;;;;7.38;41.75;103577.09;5100212;28;20426;-85
2021/03/06 05:42:54;;;;;;;;;;;;;;;7.24;42.10;103580.53;5100445;28;19912;-84
2021/03/06 05:45:19;;;;;;;;;;;;;;;7.22;42.36;103581.44;5100980;28;19937;-84
2021/03/06 05:47:45;;;;;;;;;;;;;;;7.14;42.83;103585.81;5100329;28;19920;-84
2021/03/06 05:50:10;;;;;;;;;;;;;;;7.03;43.39;103593.78;5099938;28;19961;-84
2021/03/06 05:52:39;;;;;;;;;;;;;;;7.05;42.59;103595.63;5100252;28;20022;-85
2021/03/06 05:55:04;;;;;;;;;;;;;;;6.87;43.22;103593.59;5100151;28;19929;-84
2021/03/06 05:57:30;;;;;;;;;;;;;;;6.63;44.23;103591.50;5099478;28;19916;-83
2021/03/06 05:59:55;;;;;;;;;;;;;;;6.88;43.83;103594.50;5100219;28;19924;-83
2021/03/06 06:02:20;;;;;;;;;;;;;;;6.96;43.58;103594.59;5100275;28;19923;-83
2021/03/06 06:04:46;;;;;;;;;;;;;;;6.86;44.19;103598.97;5118999;28;19923;-83
2021/03/06 06:07:14;;;;;;;;;;;;;;;6.91;43.41;103598.16;5099721;28;19916;-83
2021/03/06 06:09:41;;;;;;;;;;;;;;;6.65;42.96;103602.28;5099625;28;20426;-82
2021/03/06 06:12:07;;;;;;;;;;;;;;;6.64;44.50;103605.84;5099832;28;19916;-82
2021/03/06 06:14:32;;;;;;;;;;;;;;;6.84;43.38;103608.78;5099721;28;20330;-85
2021/03/06 06:17:06;;;;;;;;;;;;;;;6.65;44.12;103611.25;5099934;28;19962;-89
2021/03/06 06:19:32;;;;;;;;;;;;;;;7.07;43.74;103603.72;5118234;28;19922;-84
2021/03/06 06:21:59;;;;;;;;;;;;;;;6.91;43.68;103614.31;5100002;28;19923;-84
2021/03/06 06:24:24;;;;;;;;;;;;;;;6.99;43.56;103614.38;5118457;28;19916;-86
2021/03/06 06:26:54;;;;;;;;;;;;;;;7.16;42.84;103613.69;5100988;28;19965;-85
2021/03/06 06:29:39;;;;;;;;;;;;;;;7.15;43.43;103618.16;5099929;28;19968;-84
2021/03/06 06:32:05;;;;;;;;;;;;;;;6.89;44.22;103621.44;5099050;28;19911;-84
2021/03/06 06:34:31;;;;;;;;;;;;;;;7.03;43.83;103623.38;5099120;28;19922;-84
2021/03/06 06:36:56;;;;;;;;;;;;;;;7.21;43.00;103625.41;5099461;28;19916;-85
2021/03/06 06:39:29;;;;;;;;;;;;;;;7.05;44.07;103621.59;5117578;28;19938;-85
2021/03/06 06:42:03;;;;;;;;;;;;;;;7.29;42.86;103626.38;5117714;28;19923;-85
2021/03/06 06:44:30;;;;;;;;;;;;;;;7.49;42.91;103628.38;5098982;28;19970;-85
2021/03/06 06:46:56;;;;;;;;;;;;;;;7.44;43.28;103623.88;5100654;28;19915;-84
2021/03/06 06:49:22;;;;;;;;;;;;;;;7.44;42.97;103631.94;5102950;28;19961;-84
2021/03/06 06:52:00;;;;;;;;;;;;;;;7.58;42.40;103631.19;5104148;28;19920;-85
2021/03/06 06:54:26;;;;;;;;;;;;;;;7.70;42.39;103644.78;5125300;28;19916;-85
2021/03/06 06:57:04;;;;;;;;;;;;;;;7.85;42.83;103649.41;5100897;28;20000;-85
2021/03/06 06:59:30;;;;;;;;;;;;;;;7.68;43.12;103643.81;5098432;28;20401;-85
2021/03/06 07:01:55;;;;;;;;;;;;;;;7.89;42.55;103643.13;5098569;28;19916;-84
2021/03/06 07:04:20;;;;;;;;;;;;;;;7.89;42.97;103643.13;5098848;28;19923;-86
2021/03/06 07:06:56;;;;;;;;;;;;;;;7.78;43.34;103643.03;5098246;28;20028;-84
2021/03/06 07:09:22;;;;;;;;;;;;;;;7.73;43.90;103641.19;5116488;28;20034;-84
2021/03/06 07:11:47;;;;;;;;;;;;;;;7.98;43.24;103647.69;5116854;28;20381;-84
2021/03/06 07:14:12;;;;;;;;;;;;;;;7.94;43.58;103653.94;5098127;28;19926;-84
2021/03/06 07:16:57;;;;;;;;;;;;;;;8.14;42.86;103641.53;5089715;28;19923;-83
2021/03/06 07:19:23;;;;;;;;;;;;;;;8.33;42.78;103649.75;5069842;28;19946;-84
2021/03/06 07:21:49;;;;;;;;;;;;;;;8.40;42.84;103646.22;5079828;28;19921;-82
2021/03/06 07:24:15;;;;;;;;;;;;;;;8.47;42.72;103648.09;5063084;28;20402;-85
2021/03/06 07:26:41;;;;;;;;;;;;;;;8.62;42.76;103650.00;5058056;28;19943;-85
2021/03/06 07:29:06;;;;;;;;;;;;;;;8.87;42.35;103648.31;5060788;28;19925;-84
2021/03/06 07:31:34;;;;;;;;;;;;;;;8.93;42.75;103652.84;5057470;28;19920;-84
2021/03/06 07:34:00;;;;;;;;;;;;;;;8.71;43.78;103654.53;5057322;28;19928;-85
2021/03/06 07:36:25;;;;;;;;;;;;;;;8.74;44.70;103659.03;5056827;28;19931;-85
2021/03/06 07:38:51;;;;;;;;;;;;;;;8.59;45.49;103652.69;5057411;28;19916;-85
2021/03/06 07:41:19;;;;;;;;;;;;;;;8.55;45.57;103652.66;5075373;28;20384;-86
2021/03/06 07:43:46;;;;;;;;;;;;;;;8.92;44.37;103648.31;5052227;28;19967;-85
2021/03/06 07:46:12;;;;;;;;;;;;;;;9.57;43.75;103638.63;5075328;28;19920;-87
2021/03/06 07:48:41;;;;;;;;;;;;;;;9.54;44.49;103644.03;5057657;28;19916;-85
2021/03/06 07:51:08;;;;;;;;;;;;;;;9.49;44.91;103642.22;5046225;28;19925;-85
2021/03/06 07:53:34;;;;;;;;;;;;;;;9.71;44.68;103648.56;5051181;28;19921;-86
2021/03/06 07:56:04;;;;;;;;;;;;;;;9.65;45.04;103645.84;5057606;28;19943;-86
2021/03/06 07:58:45;;;;;;;;;;;;;;;10.06;44.80;103639.56;5075152;28;19921;-86
2021/03/06 08:01:23;;;;;;;;;;;;;;;10.19;44.70;103638.66;5057476;28;20340;-87
2021/03/06 08:03:48;;;;;;;;;;;;;;;10.04;45.39;103642.25;5069355;28;19916;-84
2021/03/06 08:06:20;;;;;;;;;;;;;;;9.20;47.32;103643.94;5085837;28;19935;-84
2021/03/06 08:08:45;;;;;;;;;;;;;;;9.49;47.44;103636.81;5068653;28;19921;-84
2021/03/06 08:11:10;;;;;;;;;;;;;;;10.39;45.04;103645.88;5056230;28;19940;-84
2021/03/06 08:13:51;;;;;;;;;;;;;;;11.17;43.63;103641.97;5075625;28;19923;-83
2021/03/06 08:16:19;;;;;;;;;;;;;;;11.11;43.90;103645.63;5051429;28;20030;-84
2021/03/06 08:18:44;;;;;;;;;;;;;;;10.41;45.77;103660.28;5061667;28;19971;-83
2021/03/06 08:21:28;;;;;;;;;;;;;;;11.20;44.09;103650.06;5045284;28;19955;-82
2021/03/06 08:24:21;;;;;;;;;;;;;;;11.90;42.17;103650.53;5043846;28;19974;-83
2021/03/06 08:26:51;;;;;;;;;;;;;;;13.04;40.19;103646.63;5046173;28;19924;-85
2021/03/06 08:29:23;;;;;;;;;;;;;;;12.52;40.76;103644.56;5045749;28;19960;-84
2021/03/06 08:32:02;;;;;;;;;;;;;;;12.72;40.69;103644.31;5063726;28;19986;-84
2021/03/06 08:34:28;;;;;;;;;;;;;;;12.88;39.58;103645.06;5045775;28;19924;-89
2021/03/06 08:37:12;;;;;;;;;;;;;;;12.99;40.27;103645.81;5044174;28;19917;-84
2021/03/06 08:39:39;;;;;;;;;;;;;;;12.66;41.19;103653.44;5048870;28;19920;-83
2021/03/06 08:42:04;;;;;;;;;;;;;;;11.14;44.52;103658.22;5045928;28;19924;-83
2021/03/06 08:44:29;;;;;;;;;;;;;;;12.27;42.78;103644.78;5054968;28;19920;-84
2021/03/06 08:46:55;;;;;;;;;;;;;;;11.98;42.43;103656.81;5054949;28;19935;-83
2021/03/06 08:49:21;;;;;;;;;;;;;;;11.67;42.70;103658.81;5055509;28;19917;-84
2021/03/06 08:51:46;;;;;;;;;;;;;;;11.83;43.02;103654.19;5055136;28;20002;-84
2021/03/06 08:54:12;;;;;;;;;;;;;;;11.49;44.41;103654.47;5074069;28;19916;-82
2021/03/06 08:56:38;;;;;;;;;;;;;;;11.81;43.21;103664.19;5057638;28;19927;-84
2021/03/06 08:59:03;;;;;;;;;;;;;;;12.96;40.65;103651.28;5073441;28;19924;-83
2021/03/06 09:01:37;;;;;;;;;;;;;;;11.71;43.02;103663.31;5055991;28;20387;-83
2021/03/06 09:04:03;;;;;;;;;;;;;;;12.34;42.42;103657.41;5055254;28;19920;-83
2021/03/06 09:06:38;;;;;;;;;;;;;;;13.27;40.03;103651.78;5055130;28;20003;-83
2021/03/06 09:09:09;;;;;;;;;;;;;;;13.34;39.27;103652.59;5072978;28;19939;-84
2021/03/06 09:11:34;;;;;;;;;;;;;;;13.36;40.02;103652.59;5073036;28;19917;-83
2021/03/06 09:13:59;;;;;;;;;;;;;;;13.16;39.52;103658.28;5053890;28;19924;-84
2021/03/06 09:16:25;;;;;;;;;;;;;;;12.95;38.95;103665.78;5054672;28;19923;-82
2021/03/06 09:18:50;;;;;;;;;;;;;;;12.98;38.70;103664.84;5054760;28;19924;-83
2021/03/06 09:21:20;;;;;;;;;;;;;;;12.14;41.30;103665.75;5072818;28;19927;-84
2021/03/06 09:23:46;;;;;;;;;;;;;;;11.81;42.69;103670.50;5054888;28;19923;-83
2021/03/06 09:26:13;;;;;;;;;;;;;;;12.88;40.03;103662.25;5054987;28;19916;-83
2021/03/06 09:28:39;;;;;;;;;;;;;;;13.44;38.67;103651.56;5054861;28;20255;-84
2021/03/06 09:31:11;;;;;;;;;;;;;;;13.52;38.48;103658.72;5054809;28;20026;-84
2021/03/06 09:33:38;;;;;;;;;;;;;;;14.00;36.97;103650.69;5054652;28;19916;-84
2021/03/06 09:36:07;;;;;;;;;;;;;;;14.13;37.46;103648.63;5072603;28;19924;-83
2021/03/06 09:38:34;;;;;;;;;;;;;;;13.67;38.05;103647.59;5054551;28;19956;-84
2021/03/06 09:40:59;;;;;;;;;;;;;;;14.26;36.90;103649.34;5055303;28;19936;-84
2021/03/06 09:43:26;;;;;;;;;;;;;;;14.31;36.30;103652.84;5073072;28;20062;-85
2021/03/06 09:45:51;;;;;;;;;;;;;;;14.85;36.34;103643.66;5055438;28;19917;-84
2021/03/06 09:48:16;;;;;;;;;;;;;;;14.77;36.08;103645.66;5056685;28;19963;-84
2021/03/06 09:50:42;;;;;;;;;;;;;;;14.25;36.83;103648.44;5074874;28;20266;-85
2021/03/06 09:53:16;;;;;;;;;;;;;;;14.57;36.29;103646.00;5055710;28;20297;-84
2021/03/06 09:55:41;;;;;;;;;;;;;;;14.04;36.48;103636.13;5072837;28;20358;-84
2021/03/06 09:58:16;;;;;;;;;;;;;;;14.05;37.53;103635.16;5054568;28;19916;-84
2021/03/06 10:00:41;;;;;;;;;;;;;;;12.84;39.50;103633.31;5054460;28;20431;-84
2021/03/06 10:03:06;;;;;;;;;;;;;;;13.66;38.21;103632.19;5054965;28;19912;-83
2021/03/06 10:05:31;;;;;;;;;;;;;;;12.77;39.34;103637.94;5054973;28;19921;-83
2021/03/06 10:07:57;;;;;;;;;;;;;;;12.65;40.41;103639.88;5054757;28;19916;-83
2021/03/06 10:10:24;;;;;;;;;;;;;;;12.83;39.51;103634.25;5073502;28;20007;-83
2021/03/06 10:12:49;;;;;;;;;;;;;;;12.26;40.73;103637.59;5073402;28;19920;-83
2021/03/06 10:15:16;;;;;;;;;;;;;;;12.50;40.22;103633.72;5073246;28;19966;-84
2021/03/06 10:17:41;;;;;;;;;;;;;;;12.46;40.52;103634.66;5054490;28;19916;-83
2021/03/06 10:20:06;;;;;;;;;;;;;;;11.32;42.54;103633.78;5054516;28;20289;-83
2021/03/06 10:22:41;;;;;;;;;;;;;;;12.20;40.17;103634.94;5056605;28;20370;-83
2021/03/06 10:25:07;;;;;;;;;;;;;;;12.12;39.42;103636.81;5081708;28;19936;-84
2021/03/06 10:27:32;;;;;;;;;;;;;;;12.43;39.78;103631.09;5067619;28;19981;-85
2021/03/06 10:30:16;;;;;;;;;;;;;;;12.93;38.37;103630.47;5061503;28;19987;-83
2021/03/06 10:32:43;;;;;;;;;;;;;;;12.97;37.58;103625.00;5062605;28;19923;-83
2021/03/06 10:35:28;;;;;;;;;;;;;;;13.00;37.67;103625.88;5076864;28;20369;-84
2021/03/06 10:37:53;;;;;;;;;;;;;;;12.90;37.73;103627.78;5075931;28;19951;-83
2021/03/06 10:40:18;;;;;;;;;;;;;;;12.25;39.12;103630.34;5058009;28;19959;-82
2021/03/06 10:42:45;;;;;;;;;;;;;;;12.23;39.05;103621.34;5064975;28;20357;-81
2021/03/06 10:45:31;;;;;;;;;;;;;;;11.62;40.04;103634.44;5051219;28;19916;-83
2021/03/06 10:48:00;;;;;;;;;;;;;;;10.95;41.27;103631.25;5057526;28;20373;-83
2021/03/06 10:50:30;;;;;;;;;;;;;;;12.22;38.47;103617.69;5057746;28;20616;-81
2021/03/06 10:53:11;;;;;;;;;;;;;;;12.79;36.73;103607.09;5058420;28;19970;-83
2021/03/06 10:55:37;;;;;;;;;;;;;;;12.68;37.13;103602.72;5040129;28;19920;-84
2021/03/06 10:58:02;;;;;;;;;;;;;;;12.81;35.92;103608.91;5038066;28;19962;-83
2021/03/06 11:00:27;;;;;;;;;;;;;;;13.36;36.12;103606.38;5038727;28;19925;-85
2021/03/06 11:03:00;;;;;;;;;;;;;;;12.22;37.08;103609.56;5039232;28;20398;-84
2021/03/06 11:05:26;;;;;;;;;;;;;;;13.34;34.53;103606.38;5039689;28;19917;-83
2021/03/06 11:07:51;;;;;;;;;;;;;;;13.88;33.04;103602.81;5038951;28;19923;-85
2021/03/06 11:10:17;;;;;;;;;;;;;;;13.12;35.61;103612.09;5058598;28;19916;-85
2021/03/06 11:12:57;;;;;;;;;;;;;;;13.29;35.30;103600.09;5043424;28;19923;-85
2021/03/06 11:15:26;;;;;;;;;;;;;;;14.18;34.19;103598.63;5060963;28;19923;-85
2021/03/06 11:17:54;;;;;;;;;;;;;;;14.02;33.91;103599.84;5068211;28;20337;-84
2021/03/06 11:20:20;;;;;;;;;;;;;;;14.32;31.23;103611.09;5055591;28;19917;-83
2021/03/06 11:22:45;;;;;;;;;;;;;;;13.81;31.85;103602.03;5071544;28;20379;-84
2021/03/06 11:25:12;;;;;;;;;;;;;;;14.07;32.99;103603.38;5069990;28;19917;-84
2021/03/06 11:27:45;;;;;;;;;;;;;;;15.78;29.45;103598.84;5061860;28;19960;-82
2021/03/06 11:30:10;;;;;;;;;;;;;;;13.63;30.60;103597.78;5062735;28;19955;-84
2021/03/06 11:32:38;;;;;;;;;;;;;;;13.75;30.22;103587.63;5060338;28;20290;-85
2021/03/06 11:35:04;;;;;;;;;;;;;;;14.38;30.17;103591.91;5060523;28;20370;-86
2021/03/06 11:37:32;;;;;;;;;;;;;;;15.69;27.98;103579.94;5058912;28;19927;-85
2021/03/06 11:39:58;;;;;;;;;;;;;;;13.63;29.76;103576.03;5056187;28;19917;-86
2021/03/06 11:42:25;;;;;;;;;;;;;;;12.75;30.80;103579.97;5056012;28;20019;-85
2021/03/06 11:44:50;;;;;;;;;;;;;;;14.63;28.94;103567.81;5054943;28;20277;-86
2021/03/06 11:47:16;;;;;;;;;;;;;;;13.44;29.89;103577.25;5056839;28;19917;-88
2021/03/06 11:49:41;;;;;;;;;;;;;;;14.35;29.93;103567.47;5054063;28;20290;-88
2021/03/06 11:52:06;;;;;;;;;;;;;;;15.09;28.88;103565.03;5055434;28;19939;-86
2021/03/06 11:54:32;;;;;;;;;;;;;;;15.48;27.64;103562.28;5063825;28;20031;-86
2021/03/06 11:56:57;;;;;;;;;;;;;;;14.31;29.15;103565.72;5056285;28;20284;-87
2021/03/06 11:59:22;;;;;;;;;;;;;;;14.95;28.32;103549.88;5059019;28;19931;-86
2021/03/06 12:01:47;;;;;;;;;;;;;;;15.38;27.32;103551.59;5057147;28;19921;-88
2021/03/06 12:04:12;;;;;;;;;;;;;;;16.03;26.72;103549.91;5057041;28;20008;-87
2021/03/06 12:06:38;;;;;;;;;;;;;;;16.10;26.16;103548.81;5054195;28;20015;-87
2021/03/06 12:09:03;;;;;;;;;;;;;;;16.67;25.40;103540.84;5055083;28;19920;-86
2021/03/06 12:11:28;;;;;;;;;;;;;;;16.68;25.54;103541.72;5054247;28;19991;-88
2021/03/06 12:13:57;;;;;;;;;;;;;;;16.08;26.51;103541.63;5053502;28;19966;-87
2021/03/06 12:16:22;;;;;;;;;;;;;;;15.99;26.01;103544.59;5054350;28;19928;-87
2021/03/06 12:18:50;;;;;;;;;;;;;;;15.50;26.85;103541.28;5053889;28;19920;-85
2021/03/06 12:21:16;;;;;;;;;;;;;;;13.75;29.16;103545.00;5047774;28;19921;-88
2021/03/06 12:23:41;;;;;;;;;;;;;;;13.51;32.31;103545.41;5064305;28;19917;-85
2021/03/06 12:26:07;;;;;;;;;;;;;;;14.85;28.97;103538.25;5045978;28;20007;-88
2021/03/06 12:28:32;;;;;;;;;;;;;;;13.83;29.68;103537.59;5048458;28;20034;-87
2021/03/06 12:30:57;;;;;;;;;;;;;;;14.91;28.69;103530.91;5047241;28;19917;-87
2021/03/06 12:33:22;;;;;;;;;;;;;;;14.72;28.35;103531.31;5047865;28;19921;-88
2021/03/06 12:35:48;;;;;;;;;;;;;;;16.46;26.57;103520.50;5049930;28;20290;-88
2021/03/06 12:38:13;;;;;;;;;;;;;;;16.12;26.44;103529.66;5058107;28;19920;-90
2021/03/06 12:40:38;;;;;;;;;;;;;;;17.22;25.33;103523.66;5056920;28;19921;-87
2021/03/06 12:43:03;;;;;;;;;;;;;;;16.25;25.88;103522.03;5057864;28;19959;-88